createdAt,value
2023-01-03T10:12:46.510Z,972.64
2023-01-03T10:13:46.423Z,972.70
2023-01-03T10:14:46.459Z,972.71
2023-01-03T10:15:46.459Z,972.68
2023-01-03T10:16:46.468Z,972.62
2023-01-03T10:17:46.388Z,972.66
2023-01-03T10:18:46.406Z,972.62
2023-01-03T10:19:46.373Z,972.64
2023-01-03T10:20:46.359Z,972.61
2023-01-03T10:21:46.353Z,972.67
2023-01-03T10:22:46.349Z,972.64
2023-01-03T10:23:46.356Z,972.59
2023-01-03T10:24:46.348Z,972.59
2023-01-03T10:25:49.335Z,972.53
2023-01-03T10:26:46.483Z,972.55
2023-01-03T10:27:46.448Z,972.55
2023-01-03T10:28:46.305Z,972.56
2023-01-03T10:29:46.262Z,972.54
2023-01-03T10:30:50.689Z,972.55
2023-01-03T10:31:46.306Z,972.49
2023-01-03T10:32:46.231Z,972.52
2023-01-03T10:33:46.272Z,972.48
2023-01-03T10:34:46.216Z,972.50
2023-01-03T10:35:46.233Z,972.49
2023-01-03T10:36:46.256Z,972.51
2023-01-03T10:37:46.205Z,972.49
2023-01-03T10:38:52.568Z,972.49
2023-01-03T10:39:46.179Z,972.50
2023-01-03T10:40:49.180Z,972.52
2023-01-03T10:41:46.161Z,972.56
2023-01-03T10:42:46.133Z,972.53
2023-01-03T10:43:46.133Z,972.52
2023-01-03T10:44:46.120Z,972.49
2023-01-03T10:45:49.673Z,972.52
2023-01-03T10:46:46.539Z,972.51
2023-01-03T10:47:47.060Z,972.53
2023-01-03T10:49:47.068Z,972.47
2023-01-03T10:50:46.062Z,972.49
2023-01-03T10:51:46.221Z,972.48
2023-01-03T10:52:47.005Z,972.45
2023-01-03T10:53:46.022Z,972.46
2023-01-03T10:54:46.021Z,972.45
2023-01-03T10:55:48.993Z,972.48
2023-01-03T10:56:46.010Z,972.48
2023-01-03T10:57:46.068Z,972.49
2023-01-03T10:58:45.991Z,972.41
2023-01-03T10:59:45.964Z,972.45
2023-01-03T11:00:46.023Z,972.36
2023-01-03T11:01:46.028Z,972.40
2023-01-03T11:02:46.126Z,972.34
2023-01-03T11:03:51.317Z,972.36
2023-01-03T11:04:45.923Z,972.39
2023-01-03T11:05:45.907Z,972.38
2023-01-03T11:06:45.922Z,972.40
2023-01-03T11:07:45.872Z,972.38
2023-01-03T11:08:45.901Z,972.45
2023-01-03T11:09:50.956Z,972.46
2023-01-03T11:10:48.852Z,972.45
2023-01-03T11:11:45.869Z,972.44
2023-01-03T11:12:46.685Z,972.45
2023-01-03T11:13:45.873Z,972.42
2023-01-03T11:14:45.806Z,972.41
2023-01-03T11:15:45.826Z,972.45
2023-01-03T11:16:45.862Z,972.45
2023-01-03T11:17:45.796Z,972.45
2023-01-03T11:18:45.940Z,972.45
2023-01-03T11:19:46.709Z,972.44
2023-01-03T11:20:45.771Z,972.42
2023-01-03T11:21:45.744Z,972.45
2023-01-03T11:22:45.752Z,972.45
2023-01-03T11:23:45.717Z,972.48
2023-01-03T11:24:45.706Z,972.47
2023-01-03T11:25:48.716Z,972.45
2023-01-03T11:26:45.719Z,972.41
2023-01-03T11:27:45.699Z,972.43
2023-01-03T11:28:45.688Z,972.44
2023-01-03T11:29:45.679Z,972.45
2023-01-03T11:30:45.684Z,972.40
2023-01-03T11:31:46.673Z,972.44
2023-01-03T11:32:45.660Z,972.40
2023-01-03T11:33:45.639Z,972.42
2023-01-03T11:35:20.673Z,972.43
2023-01-03T11:35:47.082Z,972.42
2023-01-03T11:36:45.589Z,972.46
2023-01-03T11:37:45.575Z,972.43
2023-01-03T11:38:46.542Z,972.44
2023-01-03T11:39:45.597Z,972.41
2023-01-03T11:40:48.580Z,972.38
2023-01-03T11:41:45.575Z,972.38
2023-01-03T11:42:45.513Z,972.38
2023-01-03T11:43:45.521Z,972.38
2023-01-03T11:44:45.515Z,972.39
2023-01-03T11:45:49.026Z,972.38
2023-01-03T11:46:45.582Z,972.38
2023-01-03T11:47:45.490Z,972.38
2023-01-03T11:48:45.473Z,972.38
2023-01-03T11:49:45.449Z,972.36
2023-01-03T11:50:45.494Z,972.37
2023-01-03T11:51:45.475Z,972.36
2023-01-03T11:52:45.452Z,972.38
2023-01-03T11:53:47.922Z,972.35
2023-01-03T11:54:51.023Z,972.35
2023-01-03T11:55:48.426Z,972.36
2023-01-03T11:56:45.542Z,972.33
2023-01-03T11:57:45.398Z,972.34
2023-01-03T11:58:45.370Z,972.33
2023-01-03T11:59:45.346Z,972.32
2023-01-03T12:00:45.367Z,972.30
2023-01-03T12:01:45.386Z,972.35
2023-01-03T12:02:45.548Z,972.32
2023-01-03T12:03:45.398Z,972.30
2023-01-03T12:04:45.338Z,972.33
2023-01-03T12:05:45.301Z,972.26
2023-01-03T12:06:45.307Z,972.27
2023-01-03T12:07:48.141Z,972.27
2023-01-03T12:08:45.290Z,972.20
2023-01-03T12:09:45.242Z,972.24
2023-01-03T12:10:48.258Z,972.17
2023-01-03T12:11:45.245Z,972.14
2023-01-03T12:12:45.247Z,972.12
2023-01-03T12:13:45.194Z,972.09
2023-01-03T12:14:45.264Z,972.11
2023-01-03T12:15:45.328Z,972.10
2023-01-03T12:16:45.266Z,972.09
2023-01-03T12:17:45.236Z,972.11
2023-01-03T12:18:45.196Z,972.18
2023-01-03T12:19:45.204Z,972.20
2023-01-03T12:20:45.131Z,972.21
2023-01-03T12:21:45.155Z,972.22
2023-01-03T12:22:45.133Z,972.18
2023-01-03T12:23:45.114Z,972.17
2023-01-03T12:24:45.111Z,972.19
2023-01-03T12:25:48.082Z,972.20
2023-01-03T12:26:45.086Z,972.18
2023-01-03T12:27:46.049Z,972.17
2023-01-03T12:28:45.089Z,972.18
2023-01-03T12:29:45.030Z,972.15
2023-01-03T12:30:45.073Z,972.17
2023-01-03T12:31:45.421Z,972.16
2023-01-03T12:32:45.996Z,972.16
2023-01-03T12:33:45.959Z,972.18
2023-01-03T12:34:45.014Z,972.19
2023-01-03T12:35:45.009Z,972.17
2023-01-03T12:36:44.984Z,972.16
2023-01-03T12:37:44.986Z,972.20
2023-01-03T12:38:44.966Z,972.19
2023-01-03T12:39:44.934Z,972.19
2023-01-03T12:40:47.927Z,972.20
2023-01-03T12:41:45.891Z,972.19
2023-01-03T12:42:44.929Z,972.18
2023-01-03T12:43:44.919Z,972.22
2023-01-03T12:44:44.924Z,972.24
2023-01-03T12:45:44.869Z,972.21
2023-01-03T12:46:44.931Z,972.21
2023-01-03T12:47:45.980Z,972.18
2023-01-03T12:48:44.833Z,972.19
2023-01-03T12:49:44.860Z,972.20
2023-01-03T12:50:44.842Z,972.19
2023-01-03T12:51:44.842Z,972.21
2023-01-03T12:52:44.808Z,972.20
2023-01-03T12:53:46.903Z,972.20
2023-01-03T12:54:44.825Z,972.21
2023-01-03T12:55:47.767Z,972.19
2023-01-03T12:56:44.804Z,972.17
2023-01-03T12:57:44.784Z,972.16
2023-01-03T12:58:44.803Z,972.18
2023-01-03T12:59:44.800Z,972.15
2023-01-03T13:00:44.753Z,972.15
2023-01-03T13:01:44.796Z,972.13
2023-01-03T13:02:44.923Z,972.14
2023-01-03T13:03:44.754Z,972.10
2023-01-03T13:04:44.705Z,972.13
2023-01-03T13:05:44.715Z,972.09
2023-01-03T13:06:44.683Z,972.12
2023-01-03T13:07:45.625Z,972.13
2023-01-03T13:08:44.664Z,972.15
2023-01-03T13:09:44.650Z,972.14
2023-01-03T13:10:47.614Z,972.11
2023-01-03T13:11:44.654Z,972.15
2023-01-03T13:12:44.624Z,972.14
2023-01-03T13:13:44.586Z,972.13
2023-01-03T13:14:44.577Z,972.17
2023-01-03T13:15:44.642Z,972.14
2023-01-03T13:16:44.772Z,972.13
2023-01-03T13:17:44.672Z,972.16
2023-01-03T13:18:44.535Z,972.12
2023-01-03T13:19:44.533Z,972.13
2023-01-03T13:20:49.581Z,972.11
2023-01-03T13:21:44.539Z,972.12
2023-01-03T13:22:44.525Z,972.13
2023-01-03T13:23:44.511Z,972.13
2023-01-03T13:24:44.506Z,972.14
2023-01-03T13:25:47.462Z,972.13
2023-01-03T13:26:49.706Z,972.10
2023-01-03T13:27:44.440Z,972.12
2023-01-03T13:28:44.457Z,972.14
2023-01-03T13:29:44.430Z,972.09
2023-01-03T13:30:44.453Z,972.14
2023-01-03T13:31:44.582Z,972.13
2023-01-03T13:32:44.390Z,972.15
2023-01-03T13:33:44.423Z,972.14
2023-01-03T13:34:44.384Z,972.16
2023-01-03T13:35:44.391Z,972.14
2023-01-03T13:36:44.372Z,972.13
2023-01-03T13:37:44.374Z,972.14
2023-01-03T13:38:44.357Z,972.10
2023-01-03T13:39:45.302Z,972.10
2023-01-03T13:41:16.705Z,972.12
2023-01-03T13:41:45.372Z,972.07
2023-01-03T13:42:44.313Z,972.07
2023-01-03T13:43:44.281Z,972.05
2023-01-03T13:44:44.428Z,972.06
2023-01-03T13:45:44.320Z,972.09
2023-01-03T13:46:44.321Z,972.11
2023-01-03T13:47:44.272Z,972.14
2023-01-03T13:48:44.221Z,972.12
2023-01-03T13:49:47.689Z,972.17
2023-01-03T13:50:44.216Z,972.15
2023-01-03T13:51:44.203Z,972.17
2023-01-03T13:52:44.210Z,972.13
2023-01-03T13:53:44.205Z,972.18
2023-01-03T13:54:44.166Z,972.17
2023-01-03T13:55:54.361Z,972.15
2023-01-03T13:56:44.203Z,972.13
2023-01-03T13:57:44.162Z,972.14
2023-01-03T13:58:44.156Z,972.14
2023-01-03T13:59:44.143Z,972.14
2023-01-03T14:00:44.099Z,972.14
2023-01-03T14:01:44.233Z,972.17
2023-01-03T14:02:44.347Z,972.16
2023-01-03T14:03:44.177Z,972.18
2023-01-03T14:04:44.127Z,972.21
2023-01-03T14:05:44.063Z,972.18
2023-01-03T14:06:45.031Z,972.19
2023-01-03T14:07:44.059Z,972.19
2023-01-03T14:08:44.061Z,972.19
2023-01-03T14:09:44.053Z,972.21
2023-01-03T14:10:47.985Z,972.23
2023-01-03T14:11:44.018Z,972.28
2023-01-03T14:12:44.020Z,972.29
2023-01-03T14:13:44.163Z,972.31
2023-01-03T14:14:43.999Z,972.35
2023-01-03T14:15:44.064Z,972.35
2023-01-03T14:16:43.994Z,972.35
2023-01-03T14:17:43.920Z,972.33
2023-01-03T14:18:45.000Z,972.35
2023-01-03T14:19:44.892Z,972.37
2023-01-03T14:20:43.962Z,972.38
2023-01-03T14:21:43.924Z,972.41
2023-01-03T14:22:43.945Z,972.42
2023-01-03T14:24:01.296Z,972.43
2023-01-03T14:24:44.860Z,972.40
2023-01-03T14:25:46.913Z,972.44
2023-01-03T14:26:44.874Z,972.44
2023-01-03T14:27:43.844Z,972.48
2023-01-03T14:28:43.815Z,972.49
2023-01-03T14:29:43.803Z,972.52
2023-01-03T14:30:43.827Z,972.56
2023-01-03T14:31:43.957Z,972.57
2023-01-03T14:32:43.779Z,972.59
2023-01-03T14:33:43.838Z,972.55
2023-01-03T14:34:43.774Z,972.60
2023-01-03T14:35:43.777Z,972.59
2023-01-03T14:36:43.764Z,972.55
2023-01-03T14:37:43.752Z,972.57
2023-01-03T14:38:43.744Z,972.54
2023-01-03T14:39:44.800Z,972.56
2023-01-03T14:40:46.701Z,972.52
2023-01-03T14:41:43.696Z,972.52
2023-01-03T14:42:43.676Z,972.53
2023-01-03T14:43:43.665Z,972.52
2023-01-03T14:44:44.619Z,972.53
2023-01-03T14:45:43.641Z,972.50
2023-01-03T14:46:43.692Z,972.50
2023-01-03T14:47:43.617Z,972.48
2023-01-03T14:48:43.641Z,972.46
2023-01-03T14:49:43.655Z,972.44
2023-01-03T14:50:43.619Z,972.44
2023-01-03T14:51:43.580Z,972.41
2023-01-03T14:52:43.598Z,972.44
2023-01-03T14:53:43.602Z,972.42
2023-01-03T14:54:43.569Z,972.41
2023-01-03T14:55:46.567Z,972.43
2023-01-03T14:56:43.576Z,972.36
2023-01-03T14:57:43.550Z,972.39
2023-01-03T14:58:43.537Z,972.36
2023-01-03T14:59:43.528Z,972.37
2023-01-03T15:00:43.565Z,972.41
2023-01-03T15:01:43.694Z,972.43
2023-01-03T15:02:43.683Z,972.45
2023-01-03T15:03:43.544Z,972.46
2023-01-03T15:04:43.446Z,972.48
2023-01-03T15:05:43.475Z,972.46
2023-01-03T15:06:43.430Z,972.46
2023-01-03T15:07:43.438Z,972.44
2023-01-03T15:08:43.513Z,972.46
2023-01-03T15:09:43.429Z,972.40
2023-01-03T15:10:46.420Z,972.39
2023-01-03T15:11:43.412Z,972.43
2023-01-03T15:12:43.402Z,972.39
2023-01-03T15:13:43.494Z,972.41
2023-01-03T15:14:43.343Z,972.39
2023-01-03T15:15:43.331Z,972.43
2023-01-03T15:16:43.459Z,972.39
2023-01-03T15:17:43.334Z,972.42
2023-01-03T15:18:43.333Z,972.49
2023-01-03T15:19:43.294Z,972.43
2023-01-03T15:20:43.303Z,972.40
2023-01-03T15:21:43.271Z,972.39
2023-01-03T15:22:43.303Z,972.40
2023-01-03T15:23:43.257Z,972.36
2023-01-03T15:24:43.640Z,972.38
2023-01-03T15:25:46.300Z,972.43
2023-01-03T15:26:43.234Z,972.44
2023-01-03T15:27:43.250Z,972.39
2023-01-03T15:28:43.235Z,972.41
2023-01-03T15:29:43.215Z,972.39
2023-01-03T15:30:43.217Z,972.47
2023-01-03T15:31:43.238Z,972.45
2023-01-03T15:32:43.188Z,972.46
2023-01-03T15:33:43.170Z,972.44
2023-01-03T15:34:43.145Z,972.45
2023-01-03T15:35:43.148Z,972.43
2023-01-03T15:36:43.139Z,972.43
2023-01-03T15:37:43.108Z,972.46
2023-01-03T15:38:43.127Z,972.42
2023-01-03T15:39:43.134Z,972.45
2023-01-03T15:40:46.078Z,972.45
2023-01-03T15:41:43.122Z,972.46
2023-01-03T15:42:45.288Z,972.46
2023-01-03T15:43:44.049Z,972.43
2023-01-03T15:44:43.078Z,972.46
2023-01-03T15:45:43.117Z,972.44
2023-01-03T15:46:43.040Z,972.47
2023-01-03T15:47:43.035Z,972.50
2023-01-03T15:48:43.036Z,972.50
2023-01-03T15:49:43.005Z,972.50
2023-01-03T15:50:43.004Z,972.52
2023-01-03T15:51:42.976Z,972.54
2023-01-03T15:52:42.968Z,972.52
2023-01-03T15:53:44.689Z,972.51
2023-01-03T15:54:42.967Z,972.51
2023-01-03T15:55:46.062Z,972.55
2023-01-03T15:56:42.921Z,972.54
2023-01-03T15:57:42.905Z,972.59
2023-01-03T15:58:42.904Z,972.58
2023-01-03T15:59:43.655Z,972.57
2023-01-03T16:00:42.940Z,972.57
2023-01-03T16:01:44.032Z,972.60
2023-01-03T16:02:42.955Z,972.63
2023-01-03T16:03:42.877Z,972.61
2023-01-03T16:04:42.833Z,972.65
2023-01-03T16:05:42.817Z,972.66
2023-01-03T16:06:42.915Z,972.65
2023-01-03T16:07:42.803Z,972.61
2023-01-03T16:08:42.813Z,972.61
2023-01-03T16:09:42.810Z,972.68
2023-01-03T16:10:45.799Z,972.71
2023-01-03T16:11:42.779Z,972.68
2023-01-03T16:12:42.761Z,972.70
2023-01-03T16:13:43.085Z,972.73
2023-01-03T16:14:42.759Z,972.70
2023-01-03T16:15:42.729Z,972.70
2023-01-03T16:16:42.762Z,972.69
2023-01-03T16:17:42.783Z,972.73
2023-01-03T16:18:42.767Z,972.78
2023-01-03T16:19:42.769Z,972.81
2023-01-03T16:20:42.729Z,972.84
2023-01-03T16:21:51.557Z,972.87
2023-01-03T16:22:52.498Z,972.84
2023-01-03T16:23:43.655Z,972.80
2023-01-03T16:24:42.699Z,972.81
2023-01-03T16:25:45.709Z,972.76
2023-01-03T16:26:42.859Z,972.71
2023-01-03T16:27:42.654Z,972.66
2023-01-03T16:28:42.640Z,972.66
2023-01-03T16:29:42.661Z,972.68
2023-01-03T16:30:42.624Z,972.72
2023-01-03T16:31:42.704Z,972.71
2023-01-03T16:32:42.639Z,972.79
2023-01-03T16:33:42.617Z,972.75
2023-01-03T16:34:42.613Z,972.71
2023-01-03T16:35:42.593Z,972.71
2023-01-03T16:36:42.592Z,972.68
2023-01-03T16:37:42.550Z,972.72
2023-01-03T16:38:42.548Z,972.79
2023-01-03T16:39:47.896Z,972.68
2023-01-03T16:40:45.540Z,972.73
2023-01-03T16:41:42.531Z,972.76
2023-01-03T16:42:42.511Z,972.79
2023-01-03T16:43:42.519Z,972.77
2023-01-03T16:44:42.540Z,972.78
2023-01-03T16:45:47.340Z,972.77
2023-01-03T16:46:43.436Z,972.78
2023-01-03T16:47:42.484Z,972.77
2023-01-03T16:48:42.465Z,972.75
2023-01-03T16:49:42.424Z,972.83
2023-01-03T16:50:42.457Z,972.79
2023-01-03T16:51:48.027Z,972.85
2023-01-03T16:52:43.415Z,972.82
2023-01-03T16:53:42.421Z,972.79
2023-01-03T16:54:42.406Z,972.79
2023-01-03T16:55:45.396Z,972.86
2023-01-03T16:56:42.397Z,972.85
2023-01-03T16:57:42.367Z,972.83
2023-01-03T16:58:43.335Z,972.85
2023-01-03T16:59:42.346Z,972.83
2023-01-03T17:00:42.355Z,972.86
2023-01-03T17:01:42.403Z,972.85
2023-01-03T17:02:42.603Z,972.84
2023-01-03T17:03:42.727Z,972.85
2023-01-03T17:04:42.311Z,972.83
2023-01-03T17:05:42.276Z,972.84
2023-01-03T17:06:42.417Z,972.88
2023-01-03T17:07:42.271Z,972.88
2023-01-03T17:08:42.247Z,972.89
2023-01-03T17:09:42.217Z,972.90
2023-01-03T17:10:45.238Z,972.95
2023-01-03T17:11:42.221Z,972.97
2023-01-03T17:12:42.196Z,972.93
2023-01-03T17:13:42.201Z,972.93
2023-01-03T17:14:42.190Z,972.94
2023-01-03T17:15:42.174Z,972.91
2023-01-03T17:16:42.240Z,972.88
2023-01-03T17:17:42.330Z,972.91
2023-01-03T17:18:42.168Z,972.91
2023-01-03T17:20:43.108Z,972.90
2023-01-03T17:21:46.544Z,972.97
2023-01-03T17:22:42.109Z,972.99
2023-01-03T17:23:42.071Z,972.96
2023-01-03T17:24:42.103Z,972.97
2023-01-03T17:25:45.074Z,972.96
2023-01-03T17:26:42.104Z,972.95
2023-01-03T17:27:42.225Z,972.91
2023-01-03T17:28:42.144Z,972.92
2023-01-03T17:29:42.253Z,972.93
2023-01-03T17:30:42.054Z,972.95
2023-01-03T17:31:42.030Z,972.89
2023-01-03T17:32:41.993Z,972.88
2023-01-03T17:33:42.083Z,972.89
2023-01-03T17:34:42.025Z,972.87
2023-01-03T17:35:41.944Z,972.89
2023-01-03T17:36:41.947Z,972.88
2023-01-03T17:38:14.126Z,972.92
2023-01-03T17:38:42.921Z,972.90
2023-01-03T17:39:41.973Z,972.91
2023-01-03T17:40:44.904Z,972.98
2023-01-03T17:41:41.905Z,972.99
2023-01-03T17:42:41.874Z,973.00
2023-01-03T17:43:41.865Z,973.02
2023-01-03T17:44:41.856Z,973.04
2023-01-03T17:45:41.908Z,973.04
2023-01-03T17:46:41.925Z,973.04
2023-01-03T17:47:41.930Z,973.04
2023-01-03T17:48:41.814Z,973.01
2023-01-03T17:49:41.806Z,973.01
2023-01-03T17:50:41.798Z,972.99
2023-01-03T17:51:41.794Z,973.01
2023-01-03T17:52:41.794Z,973.00
2023-01-03T17:53:43.717Z,972.99
2023-01-03T17:54:41.791Z,972.99
2023-01-03T17:55:44.783Z,973.05
2023-01-03T17:56:41.787Z,973.02
2023-01-03T17:57:41.749Z,973.03
2023-01-03T17:58:41.769Z,973.00
2023-01-03T17:59:42.708Z,973.00
2023-01-03T18:00:41.693Z,972.98
2023-01-03T18:01:41.841Z,972.99
2023-01-03T18:02:41.950Z,973.02
2023-01-03T18:03:41.919Z,972.99
2023-01-03T18:05:13.316Z,972.98
2023-01-03T18:05:42.643Z,973.01
2023-01-03T18:06:41.718Z,972.97
2023-01-03T18:07:41.656Z,972.98
2023-01-03T18:08:41.700Z,973.03
2023-01-03T18:09:41.643Z,973.05
2023-01-03T18:10:47.155Z,973.01
2023-01-03T18:11:41.627Z,973.02
2023-01-03T18:12:41.592Z,973.04
2023-01-03T18:13:41.560Z,973.04
2023-01-03T18:14:41.558Z,973.01
2023-01-03T18:15:41.566Z,973.06
2023-01-03T18:16:41.558Z,973.01
2023-01-03T18:17:42.521Z,973.01
2023-01-03T18:18:41.502Z,973.05
2023-01-03T18:19:41.536Z,973.02
2023-01-03T18:20:41.618Z,973.06
2023-01-03T18:21:41.505Z,973.06
2023-01-03T18:22:41.473Z,973.03
2023-01-03T18:23:41.483Z,973.04
2023-01-03T18:24:42.414Z,973.02
2023-01-03T18:25:44.496Z,973.06
2023-01-03T18:26:41.475Z,973.01
2023-01-03T18:27:41.466Z,973.03
2023-01-03T18:28:41.436Z,973.06
2023-01-03T18:29:41.396Z,973.03
2023-01-03T18:30:41.387Z,973.06
2023-01-03T18:31:41.417Z,973.03
2023-01-03T18:32:41.387Z,973.06
2023-01-03T18:33:41.355Z,973.04
2023-01-03T18:34:41.346Z,973.05
2023-01-03T18:35:41.366Z,973.00
2023-01-03T18:36:41.346Z,973.03
2023-01-03T18:37:41.337Z,973.02
2023-01-03T18:38:41.374Z,973.05
2023-01-03T18:39:41.294Z,973.07
2023-01-03T18:40:44.298Z,973.04
2023-01-03T18:41:41.330Z,973.05
2023-01-03T18:42:41.290Z,973.04
2023-01-03T18:43:41.308Z,972.99
2023-01-03T18:44:41.258Z,972.99
2023-01-03T18:45:41.232Z,972.94
2023-01-03T18:46:41.280Z,972.90
2023-01-03T18:47:41.202Z,972.94
2023-01-03T18:48:41.280Z,972.94
2023-01-03T18:49:41.194Z,972.93
2023-01-03T18:50:41.199Z,972.93
2023-01-03T18:51:41.183Z,972.93
2023-01-03T18:52:41.212Z,972.98
2023-01-03T18:53:41.153Z,972.96
2023-01-03T18:54:41.183Z,972.98
2023-01-03T18:55:44.153Z,972.98
2023-01-03T18:56:41.164Z,973.02
2023-01-03T18:57:41.161Z,973.04
2023-01-03T18:58:41.193Z,973.00
2023-01-03T18:59:41.419Z,973.01
2023-01-03T19:00:41.092Z,973.09
2023-01-03T19:01:41.128Z,973.02
2023-01-03T19:02:41.207Z,972.97
2023-01-03T19:03:41.526Z,973.03
2023-01-03T19:04:43.857Z,973.04
2023-01-03T19:06:04.310Z,972.98
2023-01-03T19:06:42.358Z,973.00
2023-01-03T19:07:42.827Z,972.95
2023-01-03T19:08:45.694Z,972.95
2023-01-03T19:09:44.225Z,972.97
2023-01-03T19:10:45.741Z,972.98
2023-01-03T19:11:43.004Z,972.98
2023-01-03T19:12:48.137Z,972.96
2023-01-03T19:13:42.368Z,972.99
2023-01-03T19:14:46.495Z,973.02
2023-01-03T19:15:40.963Z,973.06
2023-01-03T19:16:41.012Z,973.05
2023-01-03T19:17:40.932Z,973.07
2023-01-03T19:18:40.931Z,973.10
2023-01-03T19:19:41.036Z,973.10
2023-01-03T19:20:40.914Z,973.11
2023-01-03T19:21:40.863Z,973.15
2023-01-03T19:22:40.846Z,973.14
2023-01-03T19:23:40.877Z,973.18
2023-01-03T19:24:40.849Z,973.16
2023-01-03T19:25:43.841Z,973.14
2023-01-03T19:26:40.848Z,973.17
2023-01-03T19:27:40.820Z,973.14
2023-01-03T19:28:40.828Z,973.18
2023-01-03T19:29:40.959Z,973.18
2023-01-03T19:30:40.766Z,973.20
2023-01-03T19:31:40.848Z,973.19
2023-01-03T19:32:40.748Z,973.23
2023-01-03T19:33:40.812Z,973.25
2023-01-03T19:34:40.774Z,973.24
2023-01-03T19:35:40.710Z,973.19
2023-01-03T19:36:40.699Z,973.20
2023-01-03T19:37:40.711Z,973.20
2023-01-03T19:38:40.718Z,973.20
2023-01-03T19:39:40.713Z,973.19
2023-01-03T19:40:43.741Z,973.19
2023-01-03T19:41:40.698Z,973.21
2023-01-03T19:42:40.647Z,973.20
2023-01-03T19:43:40.744Z,973.19
2023-01-03T19:44:40.660Z,973.17
2023-01-03T19:45:40.661Z,973.16
2023-01-03T19:46:40.656Z,973.16
2023-01-03T19:47:40.607Z,973.19
2023-01-03T19:48:40.676Z,973.18
2023-01-03T19:49:40.601Z,973.18
2023-01-03T19:50:40.652Z,973.17
2023-01-03T19:51:41.233Z,973.28
2023-01-03T19:52:41.547Z,973.20
2023-01-03T19:53:42.263Z,973.19
2023-01-03T19:54:40.836Z,973.20
2023-01-03T19:55:45.872Z,973.18
2023-01-03T19:56:40.532Z,973.19
2023-01-03T19:57:40.478Z,973.18
2023-01-03T19:58:40.566Z,973.15
2023-01-03T19:59:40.492Z,973.15
2023-01-03T20:00:40.463Z,973.12
2023-01-03T20:02:14.197Z,973.13
2023-01-03T20:02:41.799Z,973.17
2023-01-03T20:03:40.622Z,973.11
2023-01-03T20:04:40.578Z,973.19
2023-01-03T20:05:40.460Z,973.12
2023-01-03T20:06:41.396Z,973.15
2023-01-03T20:07:40.405Z,973.12
2023-01-03T20:08:40.396Z,973.07
2023-01-03T20:09:40.369Z,973.08
2023-01-03T20:10:43.390Z,973.07
2023-01-03T20:11:40.380Z,973.08
2023-01-03T20:12:40.361Z,973.09
2023-01-03T20:13:40.368Z,973.07
2023-01-03T20:14:40.346Z,973.05
2023-01-03T20:15:40.345Z,973.12
2023-01-03T20:16:40.407Z,973.10
2023-01-03T20:17:40.317Z,973.11
2023-01-03T20:18:41.283Z,973.09
2023-01-03T20:19:40.336Z,973.05
2023-01-03T20:20:40.281Z,973.04
2023-01-03T20:21:40.242Z,973.02
2023-01-03T20:23:41.415Z,973.01
2023-01-03T20:24:40.241Z,973.04
2023-01-03T20:25:43.210Z,973.02
2023-01-03T20:26:40.204Z,973.04
2023-01-03T20:27:44.543Z,973.05
2023-01-03T20:28:40.193Z,973.04
2023-01-03T20:29:40.159Z,973.03
2023-01-03T20:30:40.209Z,973.00
2023-01-03T20:31:41.187Z,972.99
2023-01-03T20:32:40.136Z,972.99
2023-01-03T20:33:40.120Z,973.01
2023-01-03T20:34:40.144Z,973.01
2023-01-03T20:36:41.091Z,973.05
2023-01-03T20:37:40.088Z,973.05
2023-01-03T20:38:40.094Z,973.09
2023-01-03T20:39:40.064Z,973.11
2023-01-03T20:40:43.161Z,973.10
2023-01-03T20:41:40.065Z,973.14
2023-01-03T20:42:40.044Z,973.11
2023-01-03T20:43:40.041Z,973.13
2023-01-03T20:44:40.036Z,973.24
2023-01-03T20:45:40.022Z,973.19
2023-01-03T20:46:40.062Z,973.20
2023-01-03T20:47:39.993Z,973.22
2023-01-03T20:48:39.997Z,973.21
2023-01-03T20:49:39.965Z,973.22
2023-01-03T20:50:40.999Z,973.21
2023-01-03T20:51:39.936Z,973.22
2023-01-03T20:52:39.918Z,973.24
2023-01-03T20:53:43.023Z,973.25
2023-01-03T20:54:40.927Z,973.24
2023-01-03T20:55:42.884Z,973.26
2023-01-03T20:56:39.891Z,973.25
2023-01-03T20:57:39.875Z,973.28
2023-01-03T20:58:39.914Z,973.24
2023-01-03T20:59:39.843Z,973.26
2023-01-03T21:00:39.876Z,973.24
2023-01-03T21:01:40.034Z,973.21
2023-01-03T21:02:40.060Z,973.16
2023-01-03T21:03:39.924Z,973.18
2023-01-03T21:04:39.816Z,973.18
2023-01-03T21:05:39.793Z,973.22
2023-01-03T21:06:39.804Z,973.23
2023-01-03T21:07:39.792Z,973.21
2023-01-03T21:08:39.763Z,973.23
2023-01-03T21:09:39.750Z,973.21
2023-01-03T21:10:42.784Z,973.25
2023-01-03T21:11:39.740Z,973.25
2023-01-03T21:12:39.719Z,973.23
2023-01-03T21:13:39.734Z,973.25
2023-01-03T21:14:39.876Z,973.28
2023-01-03T21:15:39.685Z,973.24
2023-01-03T21:16:39.721Z,973.21
2023-01-03T21:17:39.656Z,973.25
2023-01-03T21:18:40.662Z,973.26
2023-01-03T21:19:39.682Z,973.26
2023-01-03T21:20:39.693Z,973.29
2023-01-03T21:21:39.696Z,973.26
2023-01-03T21:22:39.641Z,973.27
2023-01-03T21:23:39.625Z,973.25
2023-01-03T21:24:42.772Z,973.26
2023-01-03T21:25:43.597Z,973.27
2023-01-03T21:26:39.681Z,973.24
2023-01-03T21:27:39.564Z,973.22
2023-01-03T21:28:39.583Z,973.21
2023-01-03T21:29:39.575Z,973.19
2023-01-03T21:30:39.564Z,973.18
2023-01-03T21:31:39.554Z,973.21
2023-01-03T21:32:39.544Z,973.20
2023-01-03T21:33:39.535Z,973.19
2023-01-03T21:34:39.634Z,973.20
2023-01-03T21:35:39.503Z,973.20
2023-01-03T21:36:39.472Z,973.22
2023-01-03T21:37:39.514Z,973.23
2023-01-03T21:38:39.478Z,973.17
2023-01-03T21:39:39.468Z,973.14
2023-01-03T21:40:42.461Z,973.13
2023-01-03T21:41:39.470Z,973.13
2023-01-03T21:42:39.424Z,973.17
2023-01-03T21:43:39.430Z,973.19
2023-01-03T21:44:39.407Z,973.14
2023-01-03T21:45:39.555Z,973.11
2023-01-03T21:46:39.396Z,973.12
2023-01-03T21:47:39.375Z,973.13
2023-01-03T21:48:39.371Z,973.15
2023-01-03T21:49:39.401Z,973.15
2023-01-03T21:50:39.321Z,973.15
2023-01-03T21:51:39.464Z,973.13
2023-01-03T21:52:39.325Z,973.15
2023-01-03T21:53:39.331Z,973.16
2023-01-03T21:54:39.290Z,973.13
2023-01-03T21:55:42.308Z,973.13
2023-01-03T21:56:39.307Z,973.13
2023-01-03T21:57:39.283Z,973.16
2023-01-03T21:58:39.285Z,973.16
2023-01-03T21:59:39.262Z,973.16
2023-01-03T22:00:39.269Z,973.14
2023-01-03T22:01:39.380Z,973.19
2023-01-03T22:02:39.387Z,973.15
2023-01-03T22:03:39.226Z,973.17
2023-01-03T22:04:39.187Z,973.18
2023-01-03T22:05:39.199Z,973.19
2023-01-03T22:06:39.186Z,973.20
2023-01-03T22:07:49.098Z,973.26
2023-01-03T22:08:39.155Z,973.23
2023-01-03T22:09:39.157Z,973.24
2023-01-03T22:10:42.166Z,973.20
2023-01-03T22:11:39.128Z,973.20
2023-01-03T22:12:39.127Z,973.19
2023-01-03T22:13:39.118Z,973.17
2023-01-03T22:14:39.250Z,973.17
2023-01-03T22:15:39.098Z,973.19
2023-01-03T22:16:39.156Z,973.16
2023-01-03T22:17:39.078Z,973.18
2023-01-03T22:18:39.056Z,973.15
2023-01-03T22:19:39.023Z,973.14
2023-01-03T22:20:39.249Z,973.12
2023-01-03T22:21:40.183Z,973.12
2023-01-03T22:22:45.727Z,973.11
2023-01-03T22:23:40.858Z,973.10
2023-01-03T22:24:39.321Z,973.12
2023-01-03T22:25:42.231Z,973.09
2023-01-03T22:26:40.297Z,973.12
2023-01-03T22:27:40.767Z,973.08
2023-01-03T22:28:40.795Z,973.12
2023-01-03T22:29:39.399Z,973.15
2023-01-03T22:30:39.492Z,973.11
2023-01-03T22:31:39.425Z,973.15
2023-01-03T22:32:40.083Z,973.10
2023-01-03T22:33:39.220Z,973.18
2023-01-03T22:34:47.430Z,973.18
2023-01-03T22:35:40.608Z,973.15
2023-01-03T22:36:39.699Z,973.17
2023-01-03T22:37:39.176Z,973.19
2023-01-03T22:38:43.666Z,973.17
2023-01-03T22:39:39.144Z,973.24
2023-01-03T22:40:42.350Z,973.23
2023-01-03T22:41:41.424Z,973.20
2023-01-03T22:42:41.405Z,973.24
2023-01-03T22:43:39.384Z,973.25
2023-01-03T22:44:39.977Z,973.25